createdAt,value
2018-02-17T00:01:38.743Z,40.03
2018-02-17T00:04:09.580Z,26.70
2018-02-17T00:06:40.512Z,76.33
2018-02-17T00:09:11.381Z,40.77
2018-02-17T00:11:42.237Z,47.97
2018-02-17T00:14:13.176Z,42.20
2018-02-17T00:16:44.083Z,41.60
2018-02-17T00:19:14.982Z,46.87
2018-02-17T00:21:45.867Z,35.40
2018-02-17T00:24:16.845Z,38.83
2018-02-17T00:26:47.734Z,35.20
2018-02-17T00:29:18.607Z,51.70
2018-02-17T00:31:49.553Z,91.20
2018-02-17T00:34:20.404Z,42.20
2018-02-17T00:36:51.249Z,51.07
2018-02-17T00:39:22.091Z,49.10
2018-02-17T00:41:52.969Z,45.17
2018-02-17T00:44:23.851Z,75.57
2018-02-17T00:46:54.713Z,46.67
2018-02-17T00:49:25.649Z,49.73
2018-02-17T00:51:56.539Z,37.90
2018-02-17T00:54:27.373Z,41.30
2018-02-17T00:56:58.358Z,42.27
2018-02-17T00:59:29.246Z,49.22
2018-02-17T01:02:00.193Z,35.00
2018-02-17T01:04:31.099Z,51.60
2018-02-17T01:07:01.981Z,40.10
2018-02-17T01:09:32.866Z,56.37
2018-02-17T01:12:03.765Z,43.23
2018-02-17T01:14:34.619Z,50.67
2018-02-17T01:17:05.566Z,37.73
2018-02-17T01:19:36.422Z,33.63
2018-02-17T01:22:07.267Z,44.27
2018-02-17T01:24:38.129Z,36.13
2018-02-17T01:27:09.030Z,48.70
2018-02-17T01:29:39.957Z,38.00
2018-02-17T01:32:10.832Z,53.67
2018-02-17T01:34:41.730Z,39.43
2018-02-17T01:37:12.589Z,36.80
2018-02-17T01:39:43.415Z,35.17
2018-02-17T01:42:14.258Z,34.70
2018-02-17T01:44:45.096Z,24.33
2018-02-17T01:47:15.898Z,51.47
2018-02-17T01:49:46.731Z,33.10
2018-02-17T01:52:17.585Z,43.07
2018-02-17T01:54:48.457Z,28.80
2018-02-17T01:57:19.364Z,46.30
2018-02-17T01:59:50.237Z,28.37
2018-02-17T02:02:21.122Z,29.30
2018-02-17T02:04:51.961Z,32.13
2018-02-17T02:07:22.797Z,27.43
2018-02-17T02:09:53.655Z,30.97
2018-02-17T02:12:24.574Z,31.97
2018-02-17T02:14:55.426Z,30.00
2018-02-17T02:17:27.474Z,29.30
2018-02-17T02:19:58.396Z,27.30
2018-02-17T02:22:29.226Z,34.30
2018-02-17T02:25:00.107Z,29.13
2018-02-17T02:27:30.963Z,34.47
2018-02-17T02:30:01.878Z,39.70
2018-02-17T02:32:32.718Z,28.70
2018-02-17T02:35:03.595Z,32.47
2018-02-17T02:37:34.394Z,34.63
2018-02-17T02:40:05.293Z,36.90
2018-02-17T02:42:36.096Z,33.90
2018-02-17T02:45:06.966Z,54.33
2018-02-17T02:47:37.786Z,31.00
2018-02-17T02:50:08.646Z,34.27
2018-02-17T02:52:39.452Z,43.13
2018-02-17T02:55:10.286Z,33.50
2018-02-17T02:57:41.125Z,29.10
2018-02-17T03:00:11.948Z,24.97
2018-02-17T03:02:42.798Z,36.57
2018-02-17T03:05:13.672Z,32.87
2018-02-17T03:07:44.559Z,32.47
2018-02-17T03:10:15.414Z,51.47
2018-02-17T03:12:46.238Z,30.07
2018-02-17T03:15:17.150Z,30.00
2018-02-17T03:17:47.989Z,36.33
2018-02-17T03:20:18.972Z,35.27
2018-02-17T03:22:49.823Z,27.60
2018-02-17T03:25:20.650Z,30.87
2018-02-17T03:27:51.552Z,35.23
2018-02-17T03:30:22.453Z,32.50
2018-02-17T03:32:53.290Z,43.17
2018-02-17T03:35:24.126Z,29.40
2018-02-17T03:37:55.047Z,30.37
2018-02-17T03:40:25.953Z,32.90
2018-02-17T03:42:56.837Z,31.50
2018-02-17T03:45:27.699Z,32.27
2018-02-17T03:47:58.591Z,31.80
2018-02-17T03:50:29.449Z,25.77
2018-02-17T03:53:00.289Z,27.10
2018-02-17T03:55:31.121Z,30.97
2018-02-17T03:58:01.978Z,36.30
2018-02-17T04:00:32.798Z,32.00
2018-02-17T04:03:03.669Z,33.80
2018-02-17T04:05:34.558Z,50.37
2018-02-17T04:08:05.466Z,29.63
2018-02-17T04:10:36.324Z,28.70
2018-02-17T04:13:07.177Z,28.50
2018-02-17T04:15:38.019Z,29.50
2018-02-17T04:18:08.896Z,27.23
2018-02-17T04:20:39.735Z,25.47
2018-02-17T04:23:11.582Z,29.43
2018-02-17T04:25:42.416Z,28.05
2018-02-17T04:28:13.269Z,31.00
2018-02-17T04:30:44.102Z,35.53
2018-02-17T04:33:14.971Z,26.20
2018-02-17T04:35:45.852Z,30.60
2018-02-17T04:38:16.722Z,36.03
2018-02-17T04:44:10.004Z,32.95
2018-02-17T04:46:44.832Z,34.75
2018-02-17T04:52:42.314Z,29.48
2018-02-17T04:55:18.094Z,31.83
2018-02-17T04:58:00.904Z,31.10
2018-02-17T05:00:33.779Z,49.97
2018-02-17T05:03:10.773Z,30.67
2018-02-17T05:05:56.559Z,31.58
2018-02-17T05:08:27.462Z,29.27
2018-02-17T05:10:58.313Z,31.93
2018-02-17T05:13:29.178Z,25.50
2018-02-17T05:16:06.049Z,31.57
2018-02-17T05:18:46.837Z,29.70
2018-02-17T05:21:17.704Z,33.67
2018-02-17T05:23:48.582Z,24.10
2018-02-17T05:26:19.437Z,30.50
2018-02-17T05:28:50.291Z,29.87
2018-02-17T05:31:21.173Z,33.73
2018-02-17T05:33:58.102Z,29.17
2018-02-17T05:36:30.794Z,27.73
2018-02-17T05:39:03.631Z,26.10
2018-02-17T05:41:37.329Z,21.17
2018-02-17T05:44:08.221Z,25.73
2018-02-17T05:46:41.928Z,21.73
2018-02-17T05:49:12.739Z,24.95
2018-02-17T05:51:43.605Z,21.10
2018-02-17T05:54:14.436Z,23.70
2018-02-17T05:56:45.489Z,24.40
2018-02-17T05:59:16.321Z,24.75
2018-02-17T06:01:47.724Z,25.73
2018-02-17T06:04:18.561Z,28.17
2018-02-17T06:06:49.485Z,25.00
2018-02-17T06:09:20.329Z,20.63
2018-02-17T06:11:51.206Z,19.93
2018-02-17T06:14:22.063Z,19.23
2018-02-17T06:16:52.978Z,24.43
2018-02-17T06:19:23.774Z,20.53
2018-02-17T06:21:54.607Z,23.43
2018-02-17T06:24:25.428Z,18.23
2018-02-17T06:26:56.275Z,16.47
2018-02-17T06:29:27.056Z,17.53
2018-02-17T06:31:57.956Z,26.27
2018-02-17T06:34:28.788Z,23.00
2018-02-17T06:36:59.622Z,22.97
2018-02-17T06:39:30.439Z,18.50
2018-02-17T06:42:01.254Z,21.00
2018-02-17T06:44:32.073Z,20.00
2018-02-17T06:47:02.914Z,18.47
2018-02-17T06:49:33.710Z,21.67
2018-02-17T06:52:04.594Z,23.07
2018-02-17T06:54:35.419Z,19.53
2018-02-17T06:57:06.241Z,16.67
2018-02-17T06:59:37.064Z,23.67
2018-02-17T07:02:07.892Z,21.60
2018-02-17T07:04:38.767Z,19.53
2018-02-17T07:07:09.594Z,17.07
2018-02-17T07:09:40.459Z,20.33
2018-02-17T07:12:11.207Z,21.37
2018-02-17T07:14:42.050Z,19.93
2018-02-17T07:17:12.875Z,22.80
2018-02-17T07:19:43.693Z,18.70
2018-02-17T07:22:14.518Z,20.70
2018-02-17T07:24:45.346Z,15.37
2018-02-17T07:27:16.177Z,24.47
2018-02-17T07:29:47.024Z,19.73
2018-02-17T07:32:17.860Z,22.07
2018-02-17T07:34:48.655Z,23.93
2018-02-17T07:37:19.512Z,24.50
2018-02-17T07:39:50.334Z,24.97
2018-02-17T07:42:21.189Z,18.47
2018-02-17T07:44:52.016Z,20.70
2018-02-17T07:47:23.022Z,21.23
2018-02-17T07:49:53.816Z,23.55
2018-02-17T07:52:24.655Z,21.13
2018-02-17T07:54:55.458Z,19.83
2018-02-17T07:57:26.317Z,26.10
2018-02-17T07:59:57.168Z,20.13
2018-02-17T08:02:28.021Z,20.57
2018-02-17T08:04:58.832Z,20.67
2018-02-17T08:07:29.710Z,28.10
2018-02-17T08:10:00.509Z,19.43
2018-02-17T08:12:31.340Z,18.47
2018-02-17T08:15:02.204Z,21.47
2018-02-17T08:17:33.026Z,22.63
2018-02-17T08:20:03.882Z,20.73
2018-02-17T08:22:34.739Z,22.80
2018-02-17T08:25:05.572Z,21.97
2018-02-17T08:27:37.327Z,20.30
2018-02-17T08:30:08.136Z,22.40
2018-02-17T08:32:38.937Z,18.90
2018-02-17T08:35:09.732Z,19.77
2018-02-17T08:37:40.544Z,15.00
2018-02-17T08:40:11.401Z,15.87
2018-02-17T08:42:42.181Z,21.10
2018-02-17T08:45:13.023Z,14.97
2018-02-17T08:47:43.830Z,22.23
2018-02-17T08:50:14.671Z,22.60
2018-02-17T08:52:45.450Z,17.17
2018-02-17T08:55:16.287Z,18.10
2018-02-17T08:57:47.131Z,17.10
2018-02-17T09:00:17.958Z,18.13
2018-02-17T09:02:49.860Z,19.10
2018-02-17T09:05:20.757Z,22.15
2018-02-17T09:07:51.621Z,19.50
2018-02-17T09:10:34.718Z,16.70
2018-02-17T09:13:05.568Z,19.27
2018-02-17T09:15:44.067Z,17.53
2018-02-17T09:18:15.010Z,17.25
2018-02-17T09:20:45.877Z,17.50
2018-02-17T09:23:16.710Z,19.90
2018-02-17T09:25:47.531Z,21.70
2018-02-17T09:28:18.406Z,22.30
2018-02-17T09:30:49.309Z,18.70
2018-02-17T09:33:20.180Z,20.03
2018-02-17T09:35:51.053Z,18.60
2018-02-17T09:38:21.843Z,22.07
2018-02-17T09:40:52.674Z,21.70
2018-02-17T09:43:23.521Z,20.30
2018-02-17T09:45:55.332Z,19.67
2018-02-17T09:48:26.154Z,19.42
2018-02-17T09:50:57.019Z,19.03
2018-02-17T09:53:27.901Z,20.50
2018-02-17T09:56:00.794Z,18.00
2018-02-17T09:58:31.622Z,17.37
2018-02-17T10:01:02.514Z,16.00
2018-02-17T10:03:34.137Z,17.07
2018-02-17T10:06:05.238Z,16.20
2018-02-17T10:08:36.122Z,18.35
2018-02-17T10:11:07.052Z,19.87
2018-02-17T10:13:37.951Z,17.53
2018-02-17T10:16:08.880Z,15.20
2018-02-17T10:18:39.907Z,15.77
2018-02-17T10:21:10.841Z,16.50
2018-02-17T10:23:41.678Z,19.83
2018-02-17T10:26:12.523Z,19.37
2018-02-17T10:28:43.411Z,18.13
2018-02-17T10:31:14.268Z,19.53
2018-02-17T10:33:45.130Z,16.80
2018-02-17T10:36:16.024Z,17.30
2018-02-17T10:38:46.882Z,17.77
2018-02-17T10:41:18.629Z,18.33
2018-02-17T10:43:49.475Z,16.87
2018-02-17T10:46:20.334Z,17.00
2018-02-17T10:48:51.184Z,15.80
2018-02-17T10:51:22.032Z,18.97
2018-02-17T10:53:52.941Z,15.83
2018-02-17T10:56:23.831Z,18.03
2018-02-17T10:58:54.690Z,17.37
2018-02-17T11:01:25.565Z,20.57
2018-02-17T11:03:56.395Z,16.90
2018-02-17T11:06:27.246Z,16.43
2018-02-17T11:08:58.081Z,17.00
2018-02-17T11:11:28.930Z,17.60
2018-02-17T11:13:59.767Z,18.63
2018-02-17T11:16:30.651Z,17.07
2018-02-17T11:19:01.534Z,16.90
2018-02-17T11:21:32.403Z,18.97
2018-02-17T11:24:03.250Z,22.20
2018-02-17T11:26:34.126Z,17.50
2018-02-17T11:29:05.837Z,18.13
2018-02-17T11:31:36.618Z,17.90
2018-02-17T11:34:07.415Z,19.23
2018-02-17T11:36:38.242Z,16.97
2018-02-17T11:39:09.137Z,16.57
2018-02-17T11:41:40.019Z,19.77
2018-02-17T11:44:10.892Z,21.27
2018-02-17T11:46:41.812Z,17.53
2018-02-17T11:49:12.707Z,20.57
2018-02-17T11:51:44.252Z,16.33
2018-02-17T11:54:15.118Z,16.48
2018-02-17T11:56:46.004Z,15.60
2018-02-17T11:59:16.873Z,15.53
2018-02-17T12:01:47.743Z,19.20
2018-02-17T12:04:18.614Z,17.83
2018-02-17T12:06:49.512Z,17.83
2018-02-17T12:09:20.360Z,26.40
2018-02-17T12:11:51.224Z,18.83
2018-02-17T12:14:22.330Z,18.40
2018-02-17T12:16:53.209Z,20.30
2018-02-17T12:19:24.106Z,21.87
2018-02-17T12:21:54.986Z,20.63
2018-02-17T12:24:25.823Z,21.37
2018-02-17T12:26:56.663Z,21.17
2018-02-17T12:29:27.513Z,22.87
2018-02-17T12:31:58.421Z,19.27
2018-02-17T12:34:29.275Z,21.37
2018-02-17T12:37:00.115Z,20.13
2018-02-17T12:39:30.939Z,21.70
2018-02-17T12:42:01.782Z,22.70
2018-02-17T12:44:32.691Z,20.73
2018-02-17T12:47:03.563Z,20.70
2018-02-17T12:49:34.396Z,26.70
2018-02-17T12:52:05.324Z,24.70
2018-02-17T12:54:36.178Z,22.63
2018-02-17T12:57:07.002Z,24.20
2018-02-17T12:59:37.859Z,23.67
2018-02-17T13:02:08.757Z,23.07
2018-02-17T13:04:39.643Z,22.63
2018-02-17T13:07:10.546Z,26.07
2018-02-17T13:09:41.392Z,21.00
2018-02-17T13:12:12.218Z,21.87
2018-02-17T13:14:43.064Z,24.43
2018-02-17T13:17:13.926Z,24.03
2018-02-17T13:19:44.759Z,23.87
2018-02-17T13:22:15.612Z,28.57
2018-02-17T13:24:46.457Z,21.97
2018-02-17T13:27:17.305Z,28.77
2018-02-17T13:29:48.114Z,24.60
2018-02-17T13:32:18.974Z,24.83
2018-02-17T13:34:49.849Z,23.97
2018-02-17T13:37:20.723Z,24.67
2018-02-17T13:39:51.624Z,21.70
2018-02-17T13:42:22.482Z,21.30
2018-02-17T13:44:53.331Z,21.07
2018-02-17T13:47:24.240Z,21.77
2018-02-17T13:49:55.077Z,27.40
2018-02-17T13:52:25.949Z,24.60
2018-02-17T13:54:56.745Z,23.40
2018-02-17T13:57:27.624Z,22.57
2018-02-17T13:59:58.499Z,25.60
2018-02-17T14:02:29.353Z,21.97
2018-02-17T14:05:00.233Z,21.70
2018-02-17T14:07:31.093Z,22.83
2018-02-17T14:10:01.942Z,23.80
2018-02-17T14:12:32.844Z,25.27
2018-02-17T14:15:03.701Z,21.93
2018-02-17T14:17:34.551Z,21.00
2018-02-17T14:20:05.419Z,22.47
2018-02-17T14:22:36.291Z,21.30
2018-02-17T14:25:07.152Z,19.43
2018-02-17T14:27:38.009Z,23.90
2018-02-17T14:30:08.850Z,24.83
2018-02-17T14:32:39.686Z,22.40
2018-02-17T14:35:10.558Z,22.77
2018-02-17T14:37:41.394Z,23.73
2018-02-17T14:40:12.441Z,23.07
2018-02-17T14:42:43.294Z,20.45
2018-02-17T14:45:14.127Z,26.07
2018-02-17T14:47:45.034Z,20.33
2018-02-17T14:50:15.931Z,23.80
2018-02-17T14:52:46.807Z,23.33
2018-02-17T14:55:17.678Z,21.97
2018-02-17T14:57:48.533Z,19.07
2018-02-17T15:00:19.384Z,26.93
2018-02-17T15:02:50.275Z,24.00
2018-02-17T15:05:21.120Z,23.53
2018-02-17T15:07:51.995Z,21.70
2018-02-17T15:10:22.826Z,22.03
2018-02-17T15:12:53.723Z,24.27
2018-02-17T15:15:24.640Z,24.17
2018-02-17T15:17:55.539Z,21.80
2018-02-17T15:20:26.376Z,26.53
2018-02-17T15:22:57.223Z,22.43
2018-02-17T15:25:28.073Z,27.10
2018-02-17T15:27:58.957Z,24.20
2018-02-17T15:30:29.842Z,23.10
2018-02-17T15:33:00.730Z,23.90
2018-02-17T15:35:31.561Z,27.37
2018-02-17T15:38:02.472Z,27.53
2018-02-17T15:40:33.309Z,24.63
2018-02-17T15:43:04.243Z,26.00
2018-02-17T15:45:35.090Z,24.67
2018-02-17T15:48:06.025Z,25.30
2018-02-17T15:50:36.887Z,22.10
2018-02-17T15:53:07.778Z,22.57
2018-02-17T15:55:38.555Z,23.13
2018-02-17T15:58:09.410Z,24.40
2018-02-17T16:00:40.239Z,18.70
2018-02-17T16:03:11.088Z,19.10
2018-02-17T16:05:41.954Z,19.97
2018-02-17T16:08:13.017Z,17.37
2018-02-17T16:10:45.906Z,19.62
2018-02-17T16:13:16.765Z,15.93
2018-02-17T16:15:47.625Z,13.63
2018-02-17T16:18:18.445Z,14.20
2018-02-17T16:20:49.297Z,14.77
2018-02-17T16:23:20.144Z,11.13
2018-02-17T16:25:50.962Z,13.63
2018-02-17T16:28:21.827Z,9.80
2018-02-17T16:30:52.631Z,11.73
2018-02-17T16:33:23.475Z,10.67
2018-02-17T16:35:54.279Z,9.97
2018-02-17T16:38:25.104Z,12.60
2018-02-17T16:40:56.112Z,9.77
2018-02-17T16:43:26.957Z,14.77
2018-02-17T16:45:57.787Z,12.00
2018-02-17T16:48:28.625Z,11.17
2018-02-17T16:50:59.458Z,11.63
2018-02-17T16:53:30.304Z,11.70
2018-02-17T16:56:01.199Z,12.70
2018-02-17T16:58:32.022Z,14.27
2018-02-17T17:01:02.812Z,13.67
2018-02-17T17:03:33.671Z,13.20
2018-02-17T17:06:04.481Z,13.47
2018-02-17T17:08:35.358Z,10.87
2018-02-17T17:11:06.931Z,11.60
2018-02-17T17:13:37.822Z,14.95
2018-02-17T17:16:08.620Z,12.30
2018-02-17T17:18:39.469Z,14.13
2018-02-17T17:21:10.298Z,15.97
2018-02-17T17:23:41.153Z,16.73
2018-02-17T17:26:11.972Z,18.10
2018-02-17T17:28:42.791Z,16.23
2018-02-17T17:31:13.628Z,17.50
2018-02-17T17:33:44.442Z,19.30
2018-02-17T17:36:15.278Z,21.53
2018-02-17T17:38:46.125Z,20.20
2018-02-17T17:41:16.970Z,22.10
2018-02-17T17:43:47.793Z,21.93
2018-02-17T17:46:18.646Z,28.70
2018-02-17T17:48:49.728Z,23.70
2018-02-17T17:51:20.582Z,27.45
2018-02-17T17:53:51.389Z,23.97
2018-02-17T17:56:22.224Z,29.30
2018-02-17T17:58:53.049Z,28.27
2018-02-17T18:01:23.841Z,25.73
2018-02-17T18:03:54.654Z,25.57
2018-02-17T18:06:25.515Z,25.17
2018-02-17T18:08:56.656Z,23.93
2018-02-17T18:11:27.532Z,31.02
2018-02-17T18:13:58.397Z,26.00
2018-02-17T18:16:29.238Z,31.10
2018-02-17T18:19:00.083Z,31.93
2018-02-17T18:21:30.942Z,28.73
2018-02-17T18:24:01.794Z,27.37
2018-02-17T18:26:32.643Z,25.90
2018-02-17T18:29:03.483Z,28.37
2018-02-17T18:31:34.348Z,28.00
2018-02-17T18:34:05.233Z,29.60
2018-02-17T18:36:36.095Z,28.83
2018-02-17T18:39:06.931Z,31.30
2018-02-17T18:41:37.814Z,29.63
2018-02-17T18:44:08.669Z,31.23
2018-02-17T18:46:39.564Z,27.23
2018-02-17T18:49:10.482Z,33.60
2018-02-17T18:51:41.290Z,27.60
2018-02-17T18:54:12.073Z,31.53
2018-02-17T18:56:43.038Z,30.77
2018-02-17T18:59:13.912Z,32.17
2018-02-17T19:01:44.773Z,34.60
2018-02-17T19:04:15.915Z,30.43
2018-02-17T19:06:46.782Z,31.85
2018-02-17T19:09:17.754Z,32.70
2018-02-17T19:11:48.692Z,32.53
2018-02-17T19:14:19.587Z,32.10
2018-02-17T19:16:50.491Z,34.83
2018-02-17T19:19:21.364Z,33.67
2018-02-17T19:21:52.226Z,35.57
2018-02-17T19:24:23.081Z,32.10
2018-02-17T19:26:53.922Z,33.80
2018-02-17T19:29:24.779Z,33.40
2018-02-17T19:31:55.604Z,34.30
2018-02-17T19:34:26.449Z,34.80
2018-02-17T19:36:57.288Z,32.30
2018-02-17T19:39:28.194Z,33.60
2018-02-17T19:41:59.036Z,34.73
2018-02-17T19:44:29.833Z,37.33
2018-02-17T19:47:00.636Z,33.73
2018-02-17T19:49:31.508Z,33.20
2018-02-17T19:52:02.409Z,38.30
2018-02-17T19:54:33.266Z,41.00
2018-02-17T19:57:04.066Z,41.73
2018-02-17T19:59:34.948Z,36.33
2018-02-17T20:02:05.797Z,40.10
2018-02-17T20:04:36.676Z,35.10
2018-02-17T20:07:07.565Z,40.50
2018-02-17T20:09:38.474Z,35.27
2018-02-17T20:12:09.360Z,40.23
2018-02-17T20:14:40.196Z,43.67
2018-02-17T20:17:11.073Z,40.43
2018-02-17T20:19:41.932Z,41.50
2018-02-17T20:22:12.787Z,38.50
2018-02-17T20:24:43.636Z,37.43
2018-02-17T20:27:14.526Z,40.37
2018-02-17T20:29:45.411Z,36.57
2018-02-17T20:32:16.261Z,45.53
2018-02-17T20:34:47.138Z,36.60
2018-02-17T20:37:18.238Z,38.17
2018-02-17T20:39:49.091Z,44.72
2018-02-17T20:42:19.927Z,38.63
2018-02-17T20:44:50.769Z,37.57
2018-02-17T20:47:21.609Z,38.47
2018-02-17T20:49:52.494Z,42.50
2018-02-17T20:52:24.336Z,42.90
2018-02-17T20:54:55.213Z,40.75
2018-02-17T20:57:26.033Z,44.00
2018-02-17T20:59:56.890Z,42.40
2018-02-17T21:02:27.759Z,40.17
2018-02-17T21:04:58.701Z,39.23
2018-02-17T21:07:29.538Z,39.10
2018-02-17T21:10:00.412Z,42.07
2018-02-17T21:12:31.242Z,39.13
2018-02-17T21:15:02.126Z,44.03
2018-02-17T21:17:32.958Z,41.57
2018-02-17T21:20:03.914Z,42.80
2018-02-17T21:22:34.715Z,40.07
2018-02-17T21:25:05.528Z,48.87
2018-02-17T21:27:36.350Z,37.63
2018-02-17T21:30:07.171Z,42.53
2018-02-17T21:32:38.033Z,46.13
2018-02-17T21:35:08.925Z,44.90
2018-02-17T21:37:39.736Z,50.17
2018-02-17T21:40:10.598Z,45.17
2018-02-17T21:42:41.414Z,46.60
2018-02-17T21:45:12.236Z,46.27
2018-02-17T21:47:43.094Z,47.33
2018-02-17T21:50:13.940Z,48.80
2018-02-17T21:52:44.758Z,44.57
2018-02-17T21:55:15.611Z,49.33
2018-02-17T21:57:46.394Z,45.50
2018-02-17T22:00:17.780Z,47.33
2018-02-17T22:02:48.707Z,55.12
2018-02-17T22:05:19.591Z,48.20
2018-02-17T22:07:50.480Z,51.17
2018-02-17T22:10:21.363Z,44.90
2018-02-17T22:12:52.218Z,44.87
2018-02-17T22:15:23.062Z,48.33
2018-02-17T22:17:53.872Z,53.10
2018-02-17T22:20:24.745Z,48.53
2018-02-17T22:22:55.606Z,49.47
2018-02-17T22:25:26.434Z,50.77
2018-02-17T22:27:57.273Z,51.60
2018-02-17T22:30:28.155Z,48.20
2018-02-17T22:32:58.957Z,48.20
2018-02-17T22:35:29.829Z,48.83
2018-02-17T22:38:00.662Z,45.57
2018-02-17T22:40:31.530Z,49.93
2018-02-17T22:43:02.385Z,48.07
2018-02-17T22:45:34.213Z,51.33
2018-02-17T22:48:05.142Z,48.90
2018-02-17T22:50:36.023Z,49.63
2018-02-17T22:53:06.842Z,53.50
2018-02-17T22:55:38.421Z,48.30
2018-02-17T22:58:09.300Z,42.42
2018-02-17T23:00:40.323Z,50.90
2018-02-17T23:03:11.192Z,40.72
2018-02-17T23:05:42.114Z,46.70
2018-02-17T23:08:20.115Z,47.67
2018-02-17T23:10:51.265Z,46.90
2018-02-17T23:13:22.119Z,53.33
2018-02-17T23:15:52.994Z,45.13
2018-02-17T23:18:23.918Z,51.13
2018-02-17T23:20:54.788Z,47.00
2018-02-17T23:23:25.607Z,50.97
2018-02-17T23:25:56.458Z,50.50
2018-02-17T23:28:27.274Z,44.43
2018-02-17T23:31:05.106Z,52.60
2018-02-17T23:33:35.938Z,50.25
2018-02-17T23:36:06.893Z,43.57
2018-02-17T23:38:37.733Z,51.70
2018-02-17T23:41:08.609Z,45.90
2018-02-17T23:43:39.470Z,46.57
2018-02-17T23:46:10.308Z,46.43
2018-02-17T23:48:41.160Z,47.13
2018-02-17T23:51:12.031Z,51.57
2018-02-17T23:53:42.856Z,45.37
2018-02-17T23:56:20.423Z,43.43
2018-02-17T23:58:51.286Z,47.60
